createdAt,value
2017-10-06T00:00:57.373Z,46.33
2017-10-06T00:01:57.985Z,47.66
2017-10-06T00:02:58.594Z,47.28
2017-10-06T00:03:59.206Z,47.47
2017-10-06T00:04:59.818Z,47.66
2017-10-06T00:06:00.579Z,48.42
2017-10-06T00:07:01.224Z,48.42
2017-10-06T00:08:01.838Z,48.13
2017-10-06T00:09:02.481Z,48.32
2017-10-06T00:10:03.094Z,48.42
2017-10-06T00:11:03.854Z,48.90
2017-10-06T00:12:04.465Z,49.46
2017-10-06T00:13:05.083Z,49.44
2017-10-06T00:14:05.697Z,50.20
2017-10-06T00:15:06.304Z,50.39
2017-10-06T00:16:07.103Z,50.77
2017-10-06T00:17:07.712Z,51.06
2017-10-06T00:18:08.356Z,50.58
2017-10-06T00:19:08.966Z,50.68
2017-10-06T00:20:09.584Z,50.68
2017-10-06T00:21:10.344Z,50.68
2017-10-06T00:22:10.986Z,50.68
2017-10-06T00:23:11.599Z,51.06
2017-10-06T00:24:12.210Z,51.43
2017-10-06T00:25:12.819Z,51.34
2017-10-06T00:26:13.613Z,51.34
2017-10-06T00:27:14.225Z,51.72
2017-10-06T00:28:14.834Z,51.82
2017-10-06T00:29:15.476Z,52.01
2017-10-06T00:30:16.089Z,52.01
2017-10-06T00:31:16.849Z,51.62
2017-10-06T00:32:17.463Z,51.72
2017-10-06T00:33:18.072Z,51.82
2017-10-06T00:34:18.723Z,51.82
2017-10-06T00:35:19.330Z,51.72
2017-10-06T00:36:20.092Z,52.48
2017-10-06T00:37:20.705Z,52.39
2017-10-06T00:38:21.317Z,53.05
2017-10-06T00:39:21.927Z,53.24
2017-10-06T00:40:22.537Z,53.15
2017-10-06T00:41:23.304Z,53.53
2017-10-06T00:42:23.952Z,53.91
2017-10-06T00:43:24.595Z,53.34
2017-10-06T00:44:25.212Z,53.91
2017-10-06T00:45:25.821Z,53.63
2017-10-06T00:46:26.582Z,54.29
2017-10-06T00:47:27.225Z,54.86
2017-10-06T00:48:27.835Z,54.86
2017-10-06T00:49:28.446Z,54.38
2017-10-06T00:50:29.058Z,54.57
2017-10-06T00:51:29.861Z,54.38
2017-10-06T00:52:30.465Z,54.38
2017-10-06T00:53:31.077Z,55.71
2017-10-06T00:54:31.722Z,55.24
2017-10-06T00:55:32.335Z,54.96
2017-10-06T00:56:33.093Z,55.05
2017-10-06T00:57:33.705Z,56.38
2017-10-06T00:58:34.319Z,56.63
2017-10-06T00:59:34.965Z,56.29
2017-10-06T01:00:35.571Z,56.38
2017-10-06T01:01:36.338Z,55.97
2017-10-06T01:02:36.947Z,56.38
2017-10-06T01:03:37.563Z,56.57
2017-10-06T01:04:38.171Z,56.19
2017-10-06T01:05:38.782Z,56.19
2017-10-06T01:06:39.543Z,56.10
2017-10-06T01:07:40.160Z,56.19
2017-10-06T01:08:40.768Z,56.07
2017-10-06T01:09:41.378Z,56.00
2017-10-06T01:10:41.995Z,56.19
2017-10-06T01:11:42.761Z,56.10
2017-10-06T01:12:43.368Z,56.29
2017-10-06T01:13:44.015Z,56.10
2017-10-06T01:14:44.621Z,55.90
2017-10-06T01:15:45.263Z,56.10
2017-10-06T01:16:46.029Z,55.81
2017-10-06T01:17:46.637Z,56.29
2017-10-06T01:18:47.254Z,55.90
2017-10-06T01:19:47.862Z,55.90
2017-10-06T01:20:48.473Z,56.48
2017-10-06T01:21:49.239Z,57.14
2017-10-06T01:22:49.886Z,57.71
2017-10-06T01:23:50.493Z,57.33
2017-10-06T01:24:51.104Z,56.85
2017-10-06T01:25:51.744Z,57.24
2017-10-06T01:26:52.506Z,57.24
2017-10-06T01:27:53.155Z,57.43
2017-10-06T01:28:53.769Z,57.33
2017-10-06T01:29:54.373Z,58.18
2017-10-06T01:30:54.989Z,58.18
2017-10-06T01:31:55.903Z,57.62
2017-10-06T01:32:56.506Z,57.33
2017-10-06T01:33:57.116Z,58.09
2017-10-06T01:34:57.726Z,58.18
2017-10-06T01:35:58.335Z,57.81
2017-10-06T01:36:59.098Z,58.66
2017-10-06T01:37:59.739Z,58.66
2017-10-06T01:39:00.350Z,58.57
2017-10-06T01:40:00.962Z,58.28
2017-10-06T01:41:01.575Z,58.28
2017-10-06T01:42:02.333Z,58.47
2017-10-06T01:43:02.944Z,58.47
2017-10-06T01:44:03.555Z,58.18
2017-10-06T01:45:04.165Z,58.76
2017-10-06T01:46:04.774Z,58.47
2017-10-06T01:47:05.564Z,59.33
2017-10-06T01:48:06.177Z,59.42
2017-10-06T01:49:06.787Z,58.85
2017-10-06T01:50:07.436Z,58.44
2017-10-06T01:51:08.044Z,58.57
2017-10-06T01:52:08.956Z,59.14
2017-10-06T01:53:09.574Z,58.47
2017-10-06T01:54:10.182Z,58.57
2017-10-06T01:55:10.822Z,58.47
2017-10-06T01:56:11.432Z,58.37
2017-10-06T01:57:12.223Z,58.47
2017-10-06T01:58:12.836Z,58.85
2017-10-06T01:59:13.445Z,58.85
2017-10-06T02:00:14.056Z,58.85
2017-10-06T02:01:14.667Z,59.42
2017-10-06T02:02:15.530Z,59.33
2017-10-06T02:03:16.139Z,59.99
2017-10-06T02:04:16.750Z,61.13
2017-10-06T02:05:17.359Z,60.94
2017-10-06T02:06:18.001Z,60.66
2017-10-06T02:07:18.861Z,61.13
2017-10-06T02:08:19.502Z,61.23
2017-10-06T02:09:20.117Z,61.29
2017-10-06T02:10:20.725Z,61.20
2017-10-06T02:11:21.335Z,61.10
2017-10-06T02:12:22.095Z,60.82
2017-10-06T02:13:22.710Z,60.82
2017-10-06T02:14:23.326Z,60.63
2017-10-06T02:15:23.957Z,60.53
2017-10-06T02:16:24.568Z,60.38
2017-10-06T02:17:25.328Z,61.04
2017-10-06T02:18:25.940Z,60.82
2017-10-06T02:19:26.550Z,60.91
2017-10-06T02:20:27.160Z,61.39
2017-10-06T02:21:27.777Z,61.77
2017-10-06T02:22:28.540Z,61.20
2017-10-06T02:23:29.146Z,61.29
2017-10-06T02:24:29.756Z,61.39
2017-10-06T02:25:30.366Z,61.48
2017-10-06T02:26:30.976Z,61.48
2017-10-06T02:27:31.738Z,61.48
2017-10-06T02:28:32.346Z,61.39
2017-10-06T02:29:32.957Z,62.24
2017-10-06T02:30:33.569Z,61.96
2017-10-06T02:31:34.177Z,61.48
2017-10-06T02:32:34.938Z,61.58
2017-10-06T02:33:35.547Z,61.48
2017-10-06T02:34:36.158Z,61.29
2017-10-06T02:35:36.769Z,61.20
2017-10-06T02:36:37.381Z,61.39
2017-10-06T02:37:38.170Z,62.05
2017-10-06T02:38:38.781Z,62.72
2017-10-06T02:39:39.390Z,63.10
2017-10-06T02:40:40.006Z,64.81
2017-10-06T02:41:40.614Z,64.43
2017-10-06T02:42:41.374Z,64.40
2017-10-06T02:43:41.987Z,63.64
2017-10-06T02:44:42.601Z,64.97
2017-10-06T02:45:43.208Z,64.78
2017-10-06T02:46:43.819Z,65.16
2017-10-06T02:47:44.583Z,65.82
2017-10-06T02:48:45.197Z,66.67
2017-10-06T02:49:45.805Z,66.30
2017-10-06T02:50:46.415Z,65.92
2017-10-06T02:51:47.025Z,65.54
2017-10-06T02:52:47.783Z,65.63
2017-10-06T02:53:48.392Z,65.92
2017-10-06T02:54:49.010Z,65.82
2017-10-06T02:55:49.617Z,66.20
2017-10-06T02:56:50.225Z,66.20
2017-10-06T02:57:50.989Z,66.11
2017-10-06T02:58:51.633Z,66.11
2017-10-06T02:59:52.273Z,66.11
2017-10-06T03:00:52.882Z,66.39
2017-10-06T03:01:53.492Z,65.73
2017-10-06T03:02:54.256Z,66.20
2017-10-06T03:03:54.864Z,66.20
2017-10-06T03:04:55.479Z,66.67
2017-10-06T03:05:56.086Z,67.06
2017-10-06T03:06:56.697Z,67.06
2017-10-06T03:07:57.492Z,67.53
2017-10-06T03:08:58.101Z,67.53
2017-10-06T03:09:58.742Z,67.44
2017-10-06T03:10:59.359Z,67.15
2017-10-06T03:11:59.971Z,67.31
2017-10-06T03:13:00.727Z,67.69
2017-10-06T03:14:01.338Z,67.97
2017-10-06T03:15:01.949Z,68.35
2017-10-06T03:16:02.567Z,68.64
2017-10-06T03:17:03.172Z,68.26
2017-10-06T03:18:03.933Z,68.54
2017-10-06T03:19:04.544Z,68.64
2017-10-06T03:20:05.153Z,68.35
2017-10-06T03:21:05.762Z,68.64
2017-10-06T03:22:06.379Z,68.73
2017-10-06T03:23:07.172Z,69.02
2017-10-06T03:24:07.781Z,68.83
2017-10-06T03:25:08.392Z,68.83
2017-10-06T03:26:09.001Z,68.73
2017-10-06T03:27:09.609Z,68.92
2017-10-06T03:28:10.368Z,69.30
2017-10-06T03:29:10.980Z,69.49
2017-10-06T03:30:11.597Z,69.30
2017-10-06T03:31:12.208Z,68.73
2017-10-06T03:32:12.815Z,68.44
2017-10-06T03:33:13.607Z,68.64
2017-10-06T03:34:14.221Z,68.35
2017-10-06T03:35:14.864Z,68.54
2017-10-06T03:36:15.474Z,68.35
2017-10-06T03:37:16.089Z,68.54
2017-10-06T03:38:16.845Z,68.44
2017-10-06T03:39:17.455Z,68.73
2017-10-06T03:40:18.066Z,68.44
2017-10-06T03:41:18.711Z,68.10
2017-10-06T03:42:19.322Z,68.29
2017-10-06T03:43:20.086Z,68.26
2017-10-06T03:44:20.699Z,68.35
2017-10-06T03:45:21.311Z,68.92
2017-10-06T03:46:21.917Z,68.35
2017-10-06T03:47:22.528Z,68.44
2017-10-06T03:48:23.295Z,69.21
2017-10-06T03:49:23.901Z,68.92
2017-10-06T03:50:24.510Z,68.83
2017-10-06T03:51:25.121Z,68.83
2017-10-06T03:52:25.766Z,69.11
2017-10-06T03:53:26.530Z,69.02
2017-10-06T03:54:27.137Z,69.30
2017-10-06T03:55:27.752Z,69.40
2017-10-06T03:56:28.359Z,69.49
2017-10-06T03:57:28.968Z,69.21
2017-10-06T03:58:29.733Z,69.21
2017-10-06T03:59:30.340Z,69.49
2017-10-06T04:00:30.949Z,69.30
2017-10-06T04:01:31.562Z,69.59
2017-10-06T04:02:32.168Z,69.49
2017-10-06T04:03:32.927Z,69.11
2017-10-06T04:04:33.536Z,69.59
2017-10-06T04:05:34.150Z,69.30
2017-10-06T04:06:34.762Z,70.15
2017-10-06T04:07:35.368Z,70.15
2017-10-06T04:08:36.126Z,69.59
2017-10-06T04:09:36.737Z,69.78
2017-10-06T04:10:37.348Z,69.59
2017-10-06T04:11:37.955Z,70.15
2017-10-06T04:12:38.563Z,70.25
2017-10-06T04:13:39.322Z,70.63
2017-10-06T04:14:39.932Z,71.11
2017-10-06T04:15:40.547Z,70.54
2017-10-06T04:16:41.152Z,70.54
2017-10-06T04:17:41.762Z,70.63
2017-10-06T04:18:42.521Z,69.96
2017-10-06T04:19:43.131Z,70.63
2017-10-06T04:20:43.740Z,70.82
2017-10-06T04:21:44.349Z,70.54
2017-10-06T04:22:44.959Z,70.15
2017-10-06T04:23:45.722Z,70.44
2017-10-06T04:24:46.334Z,70.44
2017-10-06T04:25:46.942Z,70.44
2017-10-06T04:26:47.550Z,70.15
2017-10-06T04:27:48.160Z,70.06
2017-10-06T04:28:48.928Z,70.12
2017-10-06T04:29:49.539Z,69.96
2017-10-06T04:30:50.147Z,69.93
2017-10-06T04:31:50.757Z,70.21
2017-10-06T04:32:51.368Z,70.35
2017-10-06T04:33:52.126Z,70.25
2017-10-06T04:34:52.738Z,70.35
2017-10-06T04:35:53.347Z,70.21
2017-10-06T04:36:53.964Z,70.06
2017-10-06T04:37:54.574Z,70.44
2017-10-06T04:38:55.331Z,70.21
2017-10-06T04:39:55.941Z,70.35
2017-10-06T04:40:56.556Z,70.40
2017-10-06T04:41:57.162Z,70.59
2017-10-06T04:42:57.772Z,70.03
2017-10-06T04:43:58.529Z,70.21
2017-10-06T04:44:59.139Z,69.93
2017-10-06T04:45:59.754Z,69.93
2017-10-06T04:47:00.393Z,70.15
2017-10-06T04:48:01.003Z,70.40
2017-10-06T04:49:01.769Z,70.03
2017-10-06T04:50:02.380Z,69.84
2017-10-06T04:51:02.986Z,69.65
2017-10-06T04:52:03.595Z,69.55
2017-10-06T04:53:04.203Z,69.93
2017-10-06T04:54:04.961Z,69.84
2017-10-06T04:55:05.576Z,69.84
2017-10-06T04:56:06.184Z,69.74
2017-10-06T04:57:06.791Z,69.46
2017-10-06T04:58:07.400Z,69.84
2017-10-06T04:59:08.161Z,69.84
2017-10-06T05:00:08.768Z,69.55
2017-10-06T05:01:09.378Z,69.84
2017-10-06T05:02:09.993Z,69.27
2017-10-06T05:03:10.599Z,69.27
2017-10-06T05:04:11.358Z,69.21
2017-10-06T05:05:12.007Z,69.27
2017-10-06T05:06:12.611Z,69.36
2017-10-06T05:07:13.220Z,69.17
2017-10-06T05:08:13.831Z,69.27
2017-10-06T05:09:14.589Z,69.27
2017-10-06T05:10:15.204Z,68.79
2017-10-06T05:11:15.811Z,69.17
2017-10-06T05:12:16.420Z,69.36
2017-10-06T05:13:17.027Z,68.79
2017-10-06T05:14:17.787Z,68.70
2017-10-06T05:15:18.395Z,68.79
2017-10-06T05:16:19.009Z,68.89
2017-10-06T05:17:19.616Z,68.89
2017-10-06T05:18:20.224Z,68.60
2017-10-06T05:19:20.984Z,68.51
2017-10-06T05:20:21.598Z,68.79
2017-10-06T05:21:22.210Z,68.70
2017-10-06T05:22:22.815Z,69.36
2017-10-06T05:23:23.458Z,69.27
2017-10-06T05:24:24.215Z,69.17
2017-10-06T05:25:24.827Z,69.46
2017-10-06T05:26:25.433Z,69.36
2017-10-06T05:27:26.043Z,69.27
2017-10-06T05:28:26.651Z,69.46
2017-10-06T05:29:27.441Z,69.08
2017-10-06T05:30:28.053Z,69.36
2017-10-06T05:31:28.662Z,69.27
2017-10-06T05:32:29.309Z,68.89
2017-10-06T05:33:29.914Z,68.89
2017-10-06T05:34:30.679Z,68.79
2017-10-06T05:35:31.325Z,68.79
2017-10-06T05:36:31.964Z,68.60
2017-10-06T05:37:32.572Z,68.89
2017-10-06T05:38:33.188Z,69.27
2017-10-06T05:39:33.946Z,68.98
2017-10-06T05:40:34.559Z,68.79
2017-10-06T05:41:35.171Z,68.60
2017-10-06T05:42:35.777Z,68.79
2017-10-06T05:43:36.391Z,69.08
2017-10-06T05:44:37.152Z,68.98
2017-10-06T05:45:37.760Z,69.17
2017-10-06T05:46:38.369Z,68.70
2017-10-06T05:47:38.977Z,68.70
2017-10-06T05:48:39.586Z,68.79
2017-10-06T05:49:40.345Z,68.89
2017-10-06T05:50:40.956Z,68.70
2017-10-06T05:51:41.602Z,68.89
2017-10-06T05:52:42.215Z,68.89
2017-10-06T05:53:42.825Z,68.41
2017-10-06T05:54:43.622Z,68.60
2017-10-06T05:55:44.228Z,68.60
2017-10-06T05:56:44.877Z,68.23
2017-10-06T05:57:45.485Z,68.60
2017-10-06T05:58:46.095Z,68.23
2017-10-06T05:59:46.887Z,68.23
2017-10-06T06:00:47.497Z,67.65
2017-10-06T06:01:48.108Z,67.46
2017-10-06T06:02:48.724Z,67.56
2017-10-06T06:03:49.331Z,67.65
2017-10-06T06:04:50.097Z,67.75
2017-10-06T06:05:50.704Z,67.56
2017-10-06T06:06:51.346Z,67.75
2017-10-06T06:07:51.963Z,67.65
2017-10-06T06:08:52.575Z,67.46
2017-10-06T06:09:53.337Z,67.18
2017-10-06T06:10:53.945Z,67.27
2017-10-06T06:11:54.555Z,66.99
2017-10-06T06:12:55.165Z,67.37
2017-10-06T06:13:55.775Z,67.27
2017-10-06T06:14:56.564Z,67.18
2017-10-06T06:15:57.176Z,67.46
2017-10-06T06:16:57.818Z,67.08
2017-10-06T06:17:58.433Z,66.80
2017-10-06T06:18:59.041Z,66.99
2017-10-06T06:19:59.803Z,67.56
2017-10-06T06:21:00.411Z,67.75
2017-10-06T06:22:01.027Z,67.75
2017-10-06T06:23:01.634Z,67.75
2017-10-06T06:24:02.254Z,67.37
2017-10-06T06:25:03.005Z,67.56
2017-10-06T06:26:03.615Z,67.65
2017-10-06T06:27:04.225Z,67.27
2017-10-06T06:28:04.833Z,67.46
2017-10-06T06:29:05.448Z,67.65
2017-10-06T06:30:06.207Z,67.85
2017-10-06T06:31:06.817Z,67.65
2017-10-06T06:32:07.427Z,67.46
2017-10-06T06:33:08.035Z,67.75
2017-10-06T06:34:08.646Z,67.65
2017-10-06T06:35:09.438Z,68.13
2017-10-06T06:36:10.079Z,68.04
2017-10-06T06:37:10.689Z,68.57
2017-10-06T06:38:11.298Z,68.70
2017-10-06T06:39:11.944Z,68.51
2017-10-06T06:40:12.702Z,68.57
2017-10-06T06:41:13.311Z,68.60
2017-10-06T06:42:13.921Z,68.60
2017-10-06T06:43:14.530Z,68.51
2017-10-06T06:44:15.139Z,68.51
2017-10-06T06:45:15.901Z,68.13
2017-10-06T06:46:16.517Z,68.32
2017-10-06T06:47:17.123Z,68.23
2017-10-06T06:48:17.732Z,68.13
2017-10-06T06:49:18.342Z,68.32
2017-10-06T06:50:19.107Z,68.04
2017-10-06T06:51:19.749Z,67.94
2017-10-06T06:52:20.358Z,68.32
2017-10-06T06:53:20.969Z,68.04
2017-10-06T06:54:21.581Z,68.23
2017-10-06T06:55:22.376Z,68.13
2017-10-06T06:56:22.990Z,68.60
2017-10-06T06:57:23.596Z,68.23
2017-10-06T06:58:24.210Z,68.04
2017-10-06T06:59:24.816Z,67.85
2017-10-06T07:00:25.578Z,67.75
2017-10-06T07:01:26.187Z,67.94
2017-10-06T07:02:26.797Z,67.65
2017-10-06T07:03:27.406Z,67.85
2017-10-06T07:04:28.018Z,68.32
2017-10-06T07:05:28.817Z,67.85
2017-10-06T07:06:29.425Z,67.75
2017-10-06T07:07:30.033Z,67.65
2017-10-06T07:08:30.651Z,67.65
2017-10-06T07:09:31.255Z,67.46
2017-10-06T07:10:32.016Z,67.37
2017-10-06T07:11:32.625Z,67.65
2017-10-06T07:12:33.236Z,67.46
2017-10-06T07:13:33.849Z,67.65
2017-10-06T07:14:34.464Z,67.27
2017-10-06T07:15:35.222Z,67.65
2017-10-06T07:16:35.839Z,67.94
2017-10-06T07:17:36.445Z,68.23
2017-10-06T07:18:37.067Z,68.04
2017-10-06T07:19:37.667Z,67.37
2017-10-06T07:20:38.462Z,67.37
2017-10-06T07:21:39.072Z,67.46
2017-10-06T07:22:39.680Z,67.65
2017-10-06T07:23:40.290Z,67.37
2017-10-06T07:24:40.902Z,67.18
2017-10-06T07:25:41.670Z,67.65
2017-10-06T07:26:42.272Z,67.65
2017-10-06T07:27:42.888Z,67.56
2017-10-06T07:28:43.494Z,67.18
2017-10-06T07:29:44.109Z,67.08
2017-10-06T07:30:44.873Z,67.08
2017-10-06T07:31:45.482Z,67.08
2017-10-06T07:32:46.091Z,67.18
2017-10-06T07:33:46.703Z,66.99
2017-10-06T07:34:47.314Z,67.18
2017-10-06T07:35:48.075Z,67.27
2017-10-06T07:36:48.693Z,67.27
2017-10-06T07:37:49.308Z,67.56
2017-10-06T07:38:49.915Z,67.75
2017-10-06T07:39:50.522Z,67.65
2017-10-06T07:40:51.280Z,67.18
2017-10-06T07:41:51.896Z,67.08
2017-10-06T07:42:52.542Z,67.27
2017-10-06T07:43:53.150Z,67.65
2017-10-06T07:44:53.765Z,67.65
2017-10-06T07:45:54.527Z,67.85
2017-10-06T07:46:55.136Z,67.75
2017-10-06T07:47:55.745Z,67.75
2017-10-06T07:48:56.360Z,67.65
2017-10-06T07:49:56.967Z,67.65
2017-10-06T07:50:57.729Z,67.85
2017-10-06T07:51:58.343Z,67.94
2017-10-06T07:52:58.948Z,67.75
2017-10-06T07:53:59.558Z,67.56
2017-10-06T07:55:00.199Z,67.65
2017-10-06T07:56:00.959Z,67.56
2017-10-06T07:57:01.574Z,67.75
2017-10-06T07:58:02.186Z,67.75
2017-10-06T07:59:02.790Z,67.56
2017-10-06T08:00:03.398Z,68.04
2017-10-06T08:01:04.162Z,67.65
2017-10-06T08:02:04.770Z,67.65
2017-10-06T08:03:05.379Z,67.56
2017-10-06T08:04:06.021Z,67.75
2017-10-06T08:05:06.666Z,67.75
2017-10-06T08:06:07.429Z,67.85
2017-10-06T08:07:08.043Z,67.18
2017-10-06T08:08:08.656Z,67.08
2017-10-06T08:09:09.262Z,67.56
2017-10-06T08:10:09.873Z,67.85
2017-10-06T08:11:10.635Z,67.65
2017-10-06T08:12:11.280Z,67.65
2017-10-06T08:13:11.893Z,67.56
2017-10-06T08:14:12.506Z,67.56
2017-10-06T08:15:13.120Z,67.46
2017-10-06T08:16:13.880Z,66.89
2017-10-06T08:17:14.489Z,67.75
2017-10-06T08:18:15.101Z,67.37
2017-10-06T08:19:15.719Z,67.94
2017-10-06T08:20:16.330Z,68.13
2017-10-06T08:21:17.090Z,68.13
2017-10-06T08:22:17.701Z,68.04
2017-10-06T08:23:18.316Z,68.13
2017-10-06T08:24:18.931Z,68.41
2017-10-06T08:25:19.540Z,68.04
2017-10-06T08:26:20.452Z,67.65
2017-10-06T08:27:21.095Z,67.75
2017-10-06T08:28:21.741Z,67.65
2017-10-06T08:29:22.350Z,67.75
2017-10-06T08:30:22.962Z,67.75
2017-10-06T08:31:23.726Z,67.18
2017-10-06T08:32:24.339Z,67.31
2017-10-06T08:33:24.949Z,67.65
2017-10-06T08:34:25.558Z,67.75
2017-10-06T08:35:26.177Z,67.02
2017-10-06T08:36:26.932Z,67.31
2017-10-06T08:37:27.539Z,66.27
2017-10-06T08:38:28.154Z,66.27
2017-10-06T08:39:28.765Z,66.23
2017-10-06T08:40:29.373Z,66.14
2017-10-06T08:41:30.135Z,66.52
2017-10-06T08:42:30.757Z,67.02
2017-10-06T08:43:31.395Z,66.64
2017-10-06T08:44:32.006Z,66.55
2017-10-06T08:45:32.622Z,66.17
2017-10-06T08:46:33.415Z,65.88
2017-10-06T08:47:34.027Z,65.03
2017-10-06T08:48:34.644Z,65.19
2017-10-06T08:49:35.253Z,65.60
2017-10-06T08:50:35.867Z,65.41
2017-10-06T08:51:36.629Z,65.60
2017-10-06T08:52:37.251Z,66.27
2017-10-06T08:53:37.859Z,66.08
2017-10-06T08:54:38.478Z,65.73
2017-10-06T08:55:39.127Z,65.35
2017-10-06T08:56:39.886Z,65.25
2017-10-06T08:57:40.500Z,64.49
2017-10-06T08:58:41.110Z,63.64
2017-10-06T08:59:41.722Z,64.11
2017-10-06T09:00:42.334Z,64.59
2017-10-06T09:01:43.129Z,63.76
2017-10-06T09:02:43.742Z,63.48
2017-10-06T09:03:44.355Z,63.01
2017-10-06T09:04:44.967Z,62.72
2017-10-06T09:05:45.580Z,63.01
2017-10-06T09:06:46.349Z,63.10
2017-10-06T09:07:46.966Z,62.72
2017-10-06T09:08:47.586Z,62.75
2017-10-06T09:09:48.196Z,62.37
2017-10-06T09:10:48.807Z,62.27
2017-10-06T09:11:49.574Z,62.18
2017-10-06T09:12:50.185Z,58.76
2017-10-06T09:13:50.798Z,58.57
2017-10-06T09:14:51.417Z,59.61
2017-10-06T09:15:52.028Z,59.80
2017-10-06T09:16:52.790Z,59.90
2017-10-06T09:17:53.411Z,59.33
2017-10-06T09:18:54.027Z,58.57
2017-10-06T09:19:54.636Z,57.97
2017-10-06T09:20:55.254Z,58.25
2017-10-06T09:21:56.018Z,58.35
2017-10-06T09:22:56.629Z,58.73
2017-10-06T09:23:57.247Z,58.63
2017-10-06T09:24:57.864Z,58.41
2017-10-06T09:25:58.473Z,58.63
2017-10-06T09:26:59.238Z,58.22
2017-10-06T09:27:59.855Z,58.51
2017-10-06T09:29:00.500Z,59.39
2017-10-06T09:30:01.120Z,58.83
2017-10-06T09:31:01.731Z,58.06
2017-10-06T09:32:02.497Z,58.51
2017-10-06T09:33:03.108Z,58.61
2017-10-06T09:34:03.726Z,58.61
2017-10-06T09:35:04.338Z,58.03
2017-10-06T09:36:04.949Z,58.22
2017-10-06T09:37:05.712Z,58.61
2017-10-06T09:38:06.333Z,58.51
2017-10-06T09:39:06.978Z,58.22
2017-10-06T09:40:07.591Z,58.13
2017-10-06T09:41:08.210Z,58.80
2017-10-06T09:42:08.970Z,58.73
2017-10-06T09:43:09.582Z,58.83
2017-10-06T09:44:10.198Z,59.30
2017-10-06T09:45:10.808Z,59.52
2017-10-06T09:46:11.422Z,58.47
2017-10-06T09:47:12.186Z,57.14
2017-10-06T09:48:12.806Z,55.71
2017-10-06T09:49:13.424Z,55.11
2017-10-06T09:50:14.036Z,54.83
2017-10-06T09:51:14.649Z,55.97
2017-10-06T09:52:15.418Z,56.00
2017-10-06T09:53:16.030Z,56.38
2017-10-06T09:54:16.641Z,56.48
2017-10-06T09:55:17.261Z,56.10
2017-10-06T09:56:17.872Z,54.86
2017-10-06T09:57:18.669Z,54.19
2017-10-06T09:58:19.284Z,55.08
2017-10-06T09:59:19.897Z,54.89
2017-10-06T10:00:20.517Z,54.79
2017-10-06T10:01:21.160Z,55.29
2017-10-06T10:02:21.929Z,52.34
2017-10-06T10:03:22.547Z,51.20
2017-10-06T10:04:23.194Z,50.73
2017-10-06T10:05:23.807Z,51.46
2017-10-06T10:06:24.427Z,51.18
2017-10-06T10:07:25.190Z,50.89
2017-10-06T10:08:25.804Z,50.92
2017-10-06T10:09:26.423Z,50.44
2017-10-06T10:10:27.043Z,49.20
2017-10-06T10:11:27.657Z,49.01
2017-10-06T10:12:28.424Z,49.49
2017-10-06T10:13:29.038Z,48.92
2017-10-06T10:14:29.653Z,50.06
2017-10-06T10:15:30.269Z,50.18
2017-10-06T10:16:30.889Z,49.13
2017-10-06T10:17:31.655Z,47.99
2017-10-06T10:18:32.274Z,46.56
2017-10-06T10:19:32.890Z,46.37
2017-10-06T10:20:33.513Z,45.89
2017-10-06T10:21:34.131Z,45.80
2017-10-06T10:22:34.906Z,46.18
2017-10-06T10:23:35.513Z,46.18
2017-10-06T10:24:36.131Z,46.56
2017-10-06T10:25:36.749Z,45.70
2017-10-06T10:26:37.370Z,45.80
2017-10-06T10:27:38.142Z,45.04
2017-10-06T10:28:38.758Z,45.23
2017-10-06T10:29:39.372Z,45.92
2017-10-06T10:30:39.989Z,46.49
2017-10-06T10:31:40.611Z,45.92
2017-10-06T10:32:41.382Z,45.83
2017-10-06T10:33:41.995Z,45.06
2017-10-06T10:34:42.642Z,44.87
2017-10-06T10:35:43.264Z,44.59
2017-10-06T10:36:43.912Z,43.91
2017-10-06T10:37:44.680Z,43.16
2017-10-06T10:38:45.298Z,44.11
2017-10-06T10:39:45.915Z,44.20
2017-10-06T10:40:46.531Z,42.49
2017-10-06T10:41:47.147Z,42.01
2017-10-06T10:42:47.915Z,40.77
2017-10-06T10:43:48.532Z,41.25
2017-10-06T10:44:49.149Z,41.53
2017-10-06T10:45:49.766Z,40.97
2017-10-06T10:46:50.383Z,40.58
2017-10-06T10:47:51.150Z,40.11
2017-10-06T10:48:51.771Z,39.34
2017-10-06T10:49:52.387Z,38.96
2017-10-06T10:50:53.004Z,38.58
2017-10-06T10:51:53.619Z,38.29
2017-10-06T10:52:54.422Z,38.10
2017-10-06T10:53:55.072Z,38.28
2017-10-06T10:54:55.688Z,38.68
2017-10-06T10:55:56.310Z,37.34
2017-10-06T10:56:56.925Z,37.54
2017-10-06T10:57:57.693Z,37.44
2017-10-06T10:58:58.310Z,37.92
2017-10-06T10:59:58.933Z,37.74
2017-10-06T11:00:59.546Z,37.93
2017-10-06T11:02:00.164Z,37.08
2017-10-06T11:03:00.930Z,36.22
2017-10-06T11:04:01.548Z,36.32
2017-10-06T11:05:02.167Z,36.32
2017-10-06T11:06:02.785Z,36.22
2017-10-06T11:07:03.408Z,36.60
2017-10-06T11:08:04.174Z,36.32
2017-10-06T11:09:04.793Z,36.69
2017-10-06T11:10:05.412Z,35.17
2017-10-06T11:11:06.027Z,33.64
2017-10-06T11:12:06.646Z,33.74
2017-10-06T11:13:07.414Z,34.79
2017-10-06T11:14:08.034Z,35.36
2017-10-06T11:15:08.683Z,35.55
2017-10-06T11:16:09.301Z,34.98
2017-10-06T11:17:09.919Z,34.61
2017-10-06T11:18:10.689Z,34.71
2017-10-06T11:19:11.305Z,34.03
2017-10-06T11:20:11.922Z,33.84
2017-10-06T11:21:12.544Z,34.12
2017-10-06T11:22:13.164Z,34.88
2017-10-06T11:23:13.970Z,35.08
2017-10-06T11:24:14.585Z,34.03
2017-10-06T11:25:15.202Z,34.50
2017-10-06T11:26:15.821Z,35.17
2017-10-06T11:27:16.438Z,34.88
2017-10-06T11:28:17.214Z,33.55
2017-10-06T11:29:17.835Z,33.55
2017-10-06T11:30:18.483Z,33.45
2017-10-06T11:31:19.099Z,34.31
2017-10-06T11:32:19.716Z,34.79
2017-10-06T11:33:20.490Z,34.50
2017-10-06T11:34:21.110Z,35.19
2017-10-06T11:35:21.725Z,34.33
2017-10-06T11:36:22.348Z,34.05
2017-10-06T11:37:22.963Z,33.47
2017-10-06T11:38:23.735Z,32.79
2017-10-06T11:39:24.355Z,33.36
2017-10-06T11:40:24.970Z,33.45
2017-10-06T11:41:25.588Z,34.03
2017-10-06T11:42:26.206Z,33.07
2017-10-06T11:43:26.980Z,33.45
2017-10-06T11:44:27.597Z,33.84
2017-10-06T11:45:28.213Z,32.60
2017-10-06T11:46:28.869Z,31.84
2017-10-06T11:47:29.485Z,31.64
2017-10-06T11:48:30.251Z,32.39
2017-10-06T11:49:30.869Z,33.53
2017-10-06T11:50:31.492Z,32.69
2017-10-06T11:51:32.108Z,32.29
2017-10-06T11:52:32.724Z,32.29
2017-10-06T11:53:33.499Z,32.20
2017-10-06T11:54:34.114Z,32.96
2017-10-06T11:55:34.731Z,33.74
2017-10-06T11:56:35.347Z,33.84
2017-10-06T11:57:35.968Z,33.64
2017-10-06T11:58:36.764Z,34.03
2017-10-06T11:59:37.387Z,33.17
2017-10-06T12:00:38.008Z,33.36
2017-10-06T12:01:38.627Z,33.64
2017-10-06T12:02:39.249Z,32.50
2017-10-06T12:03:40.013Z,32.69
2017-10-06T12:04:40.635Z,32.12
2017-10-06T12:05:41.250Z,32.21
2017-10-06T12:06:41.870Z,31.84
2017-10-06T12:07:42.489Z,32.50
2017-10-06T12:08:43.413Z,32.88
2017-10-06T12:09:44.028Z,32.79
2017-10-06T12:10:44.648Z,32.12
2017-10-06T12:11:45.272Z,31.45
2017-10-06T12:12:45.892Z,30.98
2017-10-06T12:13:46.692Z,31.36
2017-10-06T12:14:47.310Z,31.84
2017-10-06T12:15:47.927Z,31.74
2017-10-06T12:16:48.547Z,31.74
2017-10-06T12:17:49.163Z,31.15
2017-10-06T12:18:49.938Z,31.82
2017-10-06T12:19:50.550Z,32.20
2017-10-06T12:20:51.168Z,32.58
2017-10-06T12:21:51.785Z,32.77
2017-10-06T12:22:52.409Z,33.74
2017-10-06T12:23:53.278Z,32.98
2017-10-06T12:24:53.898Z,33.17
2017-10-06T12:25:54.517Z,34.12
2017-10-06T12:26:55.167Z,33.84
2017-10-06T12:27:55.784Z,34.05
2017-10-06T12:28:56.653Z,33.18
2017-10-06T12:29:57.274Z,32.98
2017-10-06T12:30:57.893Z,32.31
2017-10-06T12:31:58.505Z,32.58
2017-10-06T12:32:59.121Z,33.72
2017-10-06T12:33:59.900Z,33.91
2017-10-06T12:35:00.510Z,34.67
2017-10-06T12:36:01.165Z,34.58
2017-10-06T12:37:01.812Z,34.28
2017-10-06T12:38:02.429Z,33.99
2017-10-06T12:39:03.196Z,34.85
2017-10-06T12:40:03.854Z,35.04
2017-10-06T12:41:04.468Z,35.52
2017-10-06T12:42:05.122Z,36.18
2017-10-06T12:43:05.737Z,36.10
2017-10-06T12:44:06.505Z,35.44
2017-10-06T12:45:07.127Z,34.22
2017-10-06T12:46:07.741Z,32.50
2017-10-06T12:47:08.363Z,32.69
2017-10-06T12:48:08.978Z,33.64
2017-10-06T12:49:09.746Z,34.12
2017-10-06T12:50:10.366Z,34.05
2017-10-06T12:51:10.985Z,33.18
2017-10-06T12:52:11.599Z,32.90
2017-10-06T12:53:12.215Z,32.31
2017-10-06T12:54:13.013Z,32.69
2017-10-06T12:55:13.637Z,32.79
2017-10-06T12:56:14.249Z,33.17
2017-10-06T12:57:14.869Z,33.26
2017-10-06T12:58:15.492Z,32.88
2017-10-06T12:59:16.258Z,33.26
2017-10-06T13:00:16.879Z,33.64
2017-10-06T13:01:17.494Z,32.98